Time;durP1;ratioP1;P1;durP2;ratioP2;P2;SDS_P1;SDS_P2;PMS_P1;PMS_P2;Temp;Humidity;BMP_temperature;BMP_pressure;BME280_temperature;BME280_humidity;BME280_pressure;Samples;Min_cycle;Max_cycle;Signal;HPM_P1;HPM_P2
2021/05/21 00:02:08;;;;;;;2.45;1.00;;;;;;;15.37;40.15;100172.34;5012704;28;20018;-58
2021/05/21 00:04:34;;;;;;;2.00;0.93;;;;;;;15.11;45.20;100178.81;5009308;28;20205;-56
2021/05/21 00:07:00;;;;;;;3.65;0.90;;;;;;;14.94;45.62;100190.97;4994005;28;20057;-58
2021/05/21 00:09:25;;;;;;;2.67;0.85;;;;;;;15.12;39.72;100186.63;4994217;28;20457;-58
2021/05/21 00:11:51;;;;;;;2.05;0.80;;;;;;;15.23;41.38;100183.53;4992360;28;20033;-58
2021/05/21 00:14:19;;;;;;;2.75;0.98;;;;;;;15.48;37.97;100177.09;4992698;28;20026;-58
2021/05/21 00:16:45;;;;;;;1.70;0.80;;;;;;;15.55;40.63;100176.75;4993572;28;20082;-59
2021/05/21 00:19:11;;;;;;;2.67;0.70;;;;;;;15.38;44.19;100179.31;4994066;28;20027;-58
2021/05/21 00:21:36;;;;;;;1.80;0.80;;;;;;;15.36;40.40;100184.66;4993219;28;20022;-58
2021/05/21 00:24:02;;;;;;;2.60;0.85;;;;;;;15.28;44.09;100189.44;5024567;28;20034;-58
2021/05/21 00:26:28;;;;;;;2.60;1.00;;;;;;;15.28;40.55;100183.31;4980178;28;20432;-59
2021/05/21 00:28:54;;;;;;;3.88;1.00;;;;;;;15.13;46.37;100177.81;5007693;28;20038;-58
2021/05/21 00:31:19;;;;;;;2.65;0.75;;;;;;;15.05;46.82;100171.19;5023542;28;20026;-57
2021/05/21 00:33:45;;;;;;;2.25;0.80;;;;;;;14.76;48.21;100178.59;4986623;28;20030;-58
2021/05/21 00:36:11;;;;;;;3.75;0.90;;;;;;;14.48;49.49;100177.16;5006016;28;20061;-59
2021/05/21 00:38:36;;;;;;;2.17;0.90;;;;;;;14.65;48.91;100164.13;4979476;28;20094;-58
2021/05/21 00:41:03;;;;;;;2.40;1.02;;;;;;;14.43;48.72;100158.03;4984160;28;20085;-58
2021/05/21 00:43:29;;;;;;;2.70;1.00;;;;;;;14.59;43.31;100155.59;4978762;28;20038;-58
2021/05/21 00:45:54;;;;;;;2.53;1.00;;;;;;;14.43;47.88;100152.78;4991309;28;20026;-59
2021/05/21 00:48:21;;;;;;;1.65;0.93;;;;;;;14.51;44.61;100153.31;5021554;28;20070;-58
2021/05/21 00:50:49;;;;;;;3.80;0.90;;;;;;;14.51;49.18;100144.56;4981000;28;20057;-58
2021/05/21 00:53:16;;;;;;;1.85;0.95;;;;;;;14.27;47.50;100149.94;4975917;28;20045;-58
2021/05/21 00:55:42;;;;;;;3.00;1.05;;;;;;;14.40;43.55;100148.47;4973566;28;20050;-59
2021/05/21 00:58:08;;;;;;;4.00;1.10;;;;;;;14.50;43.74;100143.66;4987336;28;20041;-58
2021/05/21 01:00:34;;;;;;;3.70;1.10;;;;;;;14.34;48.57;100143.50;4986302;28;20509;-58
2021/05/21 01:02:59;;;;;;;3.95;1.00;;;;;;;14.23;47.89;100146.59;4992938;28;20030;-58
2021/05/21 01:05:25;;;;;;;1.38;0.88;;;;;;;14.07;48.27;100140.25;4992285;28;20450;-59
2021/05/21 01:07:50;;;;;;;2.35;0.90;;;;;;;14.27;42.77;100132.34;4991645;28;20022;-58
2021/05/21 01:10:16;;;;;;;3.03;0.90;;;;;;;14.33;44.07;100131.25;4992542;28;20076;-58
2021/05/21 01:12:43;;;;;;;2.85;1.30;;;;;;;14.32;45.80;100132.16;4992951;28;20029;-59
2021/05/21 01:15:11;;;;;;;2.60;0.90;;;;;;;14.33;46.17;100133.03;4991349;28;20433;-59
2021/05/21 01:17:36;;;;;;;1.90;0.95;;;;;;;14.50;41.86;100138.41;4992375;28;20022;-58
2021/05/21 01:20:08;;;;;;;1.63;0.90;;;;;;;14.43;46.63;100142.25;4992618;28;20018;-57
2021/05/21 01:22:33;;;;;;;3.47;1.00;;;;;;;14.46;41.89;100136.84;4992874;28;20389;-57
2021/05/21 01:24:59;;;;;;;3.83;0.80;;;;;;;14.59;42.60;100122.22;4991603;28;20022;-57
2021/05/21 01:27:25;;;;;;;1.88;0.77;;;;;;;14.44;44.23;100130.78;4992162;28;20041;-57
2021/05/21 01:29:51;;;;;;;1.50;0.90;;;;;;;14.52;43.05;100128.66;4992916;28;20030;-58
2021/05/21 01:32:16;;;;;;;3.90;1.13;;;;;;;14.51;44.29;100129.59;4975135;28;20105;-57
2021/05/21 01:34:42;;;;;;;1.90;1.00;;;;;;;14.44;44.05;100138.69;4992165;28;20023;-58
2021/05/21 01:37:21;;;;;;;2.35;0.95;;;;;;;14.65;42.41;100135.13;4991975;28;20022;-57
2021/05/21 01:39:50;;;;;;;5.25;1.05;;;;;;;14.68;43.25;100135.91;4992582;28;20106;-58
2021/05/21 01:42:15;;;;;;;2.55;1.25;;;;;;;14.79;43.22;100131.03;5007340;28;20038;-57
2021/05/21 01:44:42;;;;;;;1.85;1.13;;;;;;;14.76;43.49;100139.06;4991904;28;20122;-57
2021/05/21 01:47:12;;;;;;;3.55;1.20;;;;;;;14.85;43.62;100128.13;4992157;28;20102;-57
2021/05/21 01:49:39;;;;;;;4.35;1.45;;;;;;;14.84;43.89;100139.56;4992786;28;20026;-58
2021/05/21 01:52:05;;;;;;;2.85;1.45;;;;;;;14.80;44.08;100130.97;4990552;28;20410;-58
2021/05/21 01:54:31;;;;;;;3.60;1.30;;;;;;;14.76;44.79;100134.63;4991124;28;20034;-58
2021/05/21 01:57:00;;;;;;;1.98;1.27;;;;;;;14.76;44.53;100126.72;4991877;28;20493;-58
2021/05/21 01:59:26;;;;;;;6.22;1.63;;;;;;;14.89;43.88;100121.75;4992637;28;20022;-58
2021/05/21 02:01:52;;;;;;;2.13;1.20;;;;;;;14.90;42.86;100123.47;4992245;28;20037;-58
2021/05/21 02:04:39;;;;;;;2.97;1.23;;;;;;;14.95;42.99;100118.84;4991309;28;20032;-59
2021/05/21 02:07:07;;;;;;;2.83;1.30;;;;;;;15.02;42.73;100117.66;4991917;28;20035;-59
2021/05/21 02:09:52;;;;;;;4.45;1.20;;;;;;;15.02;42.69;100120.31;4992412;28;20026;-59
2021/05/21 02:12:18;;;;;;;5.47;1.20;;;;;;;14.95;42.37;100118.84;4992575;28;20509;-58
2021/05/21 02:14:43;;;;;;;1.55;1.02;;;;;;;14.91;42.58;100116.41;4992757;28;20038;-59
2021/05/21 02:17:09;;;;;;;3.78;1.15;;;;;;;14.97;42.40;100105.59;4992128;28;20045;-59
2021/05/21 02:19:35;;;;;;;4.55;1.20;;;;;;;14.97;41.79;100101.16;4996164;28;20032;-58
2021/05/21 02:22:01;;;;;;;1.52;1.00;;;;;;;15.09;41.71;100089.22;4996374;28;20389;-58
2021/05/21 02:24:26;;;;;;;4.53;1.30;;;;;;;15.09;41.17;100098.88;4994895;28;20023;-59
2021/05/21 02:26:52;;;;;;;7.95;1.10;;;;;;;15.07;41.01;100095.47;4995430;28;20041;-58
2021/05/21 02:29:18;;;;;;;2.33;1.08;;;;;;;15.11;41.52;100099.69;4996007;28;20505;-58
2021/05/21 02:31:43;;;;;;;4.50;1.13;;;;;;;15.13;41.41;100090.75;5010055;28;20116;-57
2021/05/21 02:34:09;;;;;;;1.85;1.10;;;;;;;15.20;39.98;100080.78;4995944;28;20023;-58
2021/05/21 02:36:35;;;;;;;2.72;1.05;;;;;;;15.27;39.48;100081.34;5010777;28;20045;-58
2021/05/21 02:39:01;;;;;;;1.77;0.90;;;;;;;15.24;41.15;100082.34;5010599;28;20041;-59
2021/05/21 02:41:26;;;;;;;1.85;1.13;;;;;;;15.18;44.01;100072.94;4996025;28;20038;-58
2021/05/21 02:43:52;;;;;;;2.47;1.05;;;;;;;15.08;43.82;100073.47;4995952;28;20026;-57
2021/05/21 02:46:18;;;;;;;2.45;1.15;;;;;;;15.07;43.39;100074.38;4996099;28;20477;-58
2021/05/21 02:48:43;;;;;;;1.42;0.90;;;;;;;15.05;44.31;100077.09;4996025;28;20045;-58
2021/05/21 02:51:09;;;;;;;1.90;1.00;;;;;;;14.89;44.88;100076.94;4994729;28;20429;-57
2021/05/21 02:53:35;;;;;;;2.05;1.15;;;;;;;14.92;44.17;100070.69;4994207;28;20026;-58
2021/05/21 02:56:00;;;;;;;6.05;1.17;;;;;;;14.88;44.84;100058.56;4995797;28;20054;-59
2021/05/21 02:58:26;;;;;;;3.60;1.17;;;;;;;14.76;46.17;100055.56;4995969;28;20027;-58
2021/05/21 03:00:52;;;;;;;2.10;1.00;;;;;;;14.65;45.23;100055.19;4995821;28;20022;-58
2021/05/21 03:03:18;;;;;;;2.58;0.98;;;;;;;14.71;45.08;100059.34;4995950;28;20015;-58
2021/05/21 03:05:43;;;;;;;2.53;0.90;;;;;;;14.70;45.29;100068.16;4995340;28;20106;-58
2021/05/21 03:08:09;;;;;;;2.95;1.27;;;;;;;14.68;44.57;100070.88;4993941;28;20033;-58
2021/05/21 03:10:35;;;;;;;1.45;0.95;;;;;;;14.66;44.62;100070.09;4995729;28;20026;-58
2021/05/21 03:13:01;;;;;;;1.50;0.93;;;;;;;14.62;47.07;100074.66;4995488;28;20031;-58
2021/05/21 03:15:28;;;;;;;1.33;0.85;;;;;;;14.60;47.32;100081.78;4995468;28;20041;-57
2021/05/21 03:17:53;;;;;;;1.50;1.00;;;;;;;14.56;47.35;100074.03;4995665;28;20029;-58
2021/05/21 03:20:20;;;;;;;2.35;1.05;;;;;;;14.60;46.97;100080.91;4998491;28;20022;-58
2021/05/21 03:22:45;;;;;;;1.90;1.00;;;;;;;14.58;49.18;100077.47;5013354;28;20113;-58
2021/05/21 03:25:11;;;;;;;2.63;1.15;;;;;;;14.60;48.77;100083.53;5013414;28;20105;-58
2021/05/21 03:27:38;;;;;;;2.55;0.68;;;;;;;14.57;48.57;100089.78;5015118;28;20109;-58
2021/05/21 03:30:08;;;;;;;2.63;1.38;;;;;;;14.61;42.14;100086.09;4999173;28;20023;-58
2021/05/21 03:32:34;;;;;;;3.47;1.15;;;;;;;14.70;41.94;100086.63;4994757;28;20030;-58
2021/05/21 03:35:00;;;;;;;1.95;1.02;;;;;;;14.62;45.62;100082.56;4995330;28;20030;-58
2021/05/21 03:37:26;;;;;;;1.02;0.88;;;;;;;14.51;45.90;100092.69;4994034;28;20438;-58
2021/05/21 03:39:51;;;;;;;3.58;0.90;;;;;;;14.46;44.54;100084.13;4994923;28;20493;-58
2021/05/21 03:42:17;;;;;;;3.55;1.20;;;;;;;14.46;44.93;100084.97;4994992;28;20107;-58
2021/05/21 03:44:43;;;;;;;3.72;0.90;;;;;;;14.42;45.29;100087.81;4994875;28;20062;-58
2021/05/21 03:47:09;;;;;;;2.47;1.10;;;;;;;14.38;46.88;100094.16;4995068;28;20027;-58
2021/05/21 03:49:35;;;;;;;1.85;1.00;;;;;;;14.38;46.98;100102.91;5026018;28;20033;-58
2021/05/21 03:52:00;;;;;;;3.78;1.20;;;;;;;14.17;49.66;100107.31;4994170;28;20580;-58
2021/05/21 03:54:26;;;;;;;6.00;1.60;;;;;;;14.18;49.99;100101.16;4991256;28;20019;-58
2021/05/21 03:56:52;;;;;;;2.30;1.10;;;;;;;14.21;50.59;100100.16;4974007;28;20065;-58
2021/05/21 03:59:18;;;;;;;3.67;1.05;;;;;;;14.07;52.94;100106.88;4977274;28;20015;-58
2021/05/21 04:01:51;;;;;;;2.05;0.95;;;;;;;14.02;54.23;100108.00;4992959;28;20030;-58
2021/05/21 04:04:20;;;;;;;5.60;1.10;;;;;;;14.01;54.04;100103.63;4989862;28;20027;-57
2021/05/21 04:06:45;;;;;;;3.28;1.00;;;;;;;13.83;55.15;100108.75;4978569;28;20494;-57
2021/05/21 04:09:11;;;;;;;3.65;1.30;;;;;;;13.90;53.53;100106.72;5026246;28;20034;-57
2021/05/21 04:11:38;;;;;;;3.80;1.17;;;;;;;14.01;53.41;100103.63;4994663;28;20386;-59
2021/05/21 04:14:05;;;;;;;2.08;0.80;;;;;;;14.02;53.55;100111.47;4992858;28;20026;-58
2021/05/21 04:16:31;;;;;;;1.15;0.88;;;;;;;14.06;53.33;100113.06;4992571;28;20117;-58
2021/05/21 04:18:58;;;;;;;2.15;1.00;;;;;;;13.99;54.28;100116.88;4975516;28;20048;-58
2021/05/21 04:21:24;;;;;;;3.83;1.33;;;;;;;13.90;54.70;100118.13;4957967;28;20117;-56
2021/05/21 04:23:50;;;;;;;1.80;1.00;;;;;;;13.99;54.92;100114.22;4974845;28;20062;-58
2021/05/21 04:26:16;;;;;;;2.78;1.30;;;;;;;13.94;55.35;100119.69;4978026;28;20023;-58
2021/05/21 04:28:42;;;;;;;3.90;1.10;;;;;;;13.98;53.07;100103.75;4974906;28;20079;-58
2021/05/21 04:31:08;;;;;;;4.50;1.17;;;;;;;14.04;50.94;100114.88;4989653;28;20026;-58
2021/05/21 04:33:35;;;;;;;3.33;1.17;;;;;;;14.07;54.30;100124.44;4994159;28;20014;-57
2021/05/21 04:36:00;;;;;;;2.33;1.00;;;;;;;14.15;53.12;100117.09;4975991;28;20123;-57
2021/05/21 04:38:27;;;;;;;2.67;1.27;;;;;;;14.11;54.12;100119.00;4974712;28;20098;-58
2021/05/21 04:40:53;;;;;;;1.95;1.10;;;;;;;14.04;54.95;100124.56;4989932;28;20073;-58
2021/05/21 04:43:26;;;;;;;3.03;1.10;;;;;;;14.03;54.77;100125.47;5009357;28;20026;-58
2021/05/21 04:45:53;;;;;;;2.65;1.17;;;;;;;14.15;54.52;100126.78;4977230;28;20110;-57
2021/05/21 04:48:22;;;;;;;2.70;1.77;;;;;;;14.16;53.41;100123.19;4973267;28;20031;-58
2021/05/21 04:50:48;;;;;;;2.00;1.23;;;;;;;14.24;54.41;100129.88;4974325;28;20033;-58
2021/05/21 04:53:14;;;;;;;2.67;1.30;;;;;;;14.27;52.76;100131.50;4974395;28;20031;-58
2021/05/21 04:55:43;;;;;;;3.58;1.05;;;;;;;14.41;52.56;100123.84;4987113;28;20104;-57
2021/05/21 04:58:09;;;;;;;2.28;1.13;;;;;;;14.50;52.95;100119.94;4992389;28;20018;-59
2021/05/21 05:00:36;;;;;;;5.22;0.98;;;;;;;14.51;55.13;100124.31;4980929;28;20023;-58
2021/05/21 05:03:08;;;;;;;2.78;1.17;;;;;;;14.21;56.29;100131.75;4974313;28;20101;-58
2021/05/21 05:05:34;;;;;;;5.25;1.30;;;;;;;14.26;56.16;100127.16;4993036;28;20450;-58
2021/05/21 05:08:00;;;;;;;3.88;1.00;;;;;;;14.45;54.94;100135.13;4992145;28;20026;-58
2021/05/21 05:10:26;;;;;;;3.50;1.27;;;;;;;14.55;55.63;100136.41;4993374;28;20026;-58
2021/05/21 05:12:53;;;;;;;3.83;1.23;;;;;;;14.60;56.12;100134.50;4993212;28;20022;-58
2021/05/21 05:15:19;;;;;;;3.33;1.08;;;;;;;14.66;54.87;100128.91;4993221;28;20482;-58
2021/05/21 05:17:48;;;;;;;2.47;1.10;;;;;;;14.57;56.71;100134.59;4992109;28;20486;-58
2021/05/21 05:20:14;;;;;;;3.63;1.45;;;;;;;14.57;56.93;100138.97;5024333;28;20034;-58
2021/05/21 05:22:40;;;;;;;3.38;1.20;;;;;;;14.49;57.54;100145.47;4991736;28;20019;-57
2021/05/21 05:25:07;;;;;;;2.17;1.08;;;;;;;14.48;57.09;100146.38;4974238;28;20110;-58
2021/05/21 05:27:33;;;;;;;4.40;1.40;;;;;;;14.56;57.04;100153.94;4992314;28;20037;-59
2021/05/21 05:29:59;;;;;;;2.55;1.15;;;;;;;14.64;56.03;100145.75;4992163;28;20027;-58
2021/05/21 05:32:25;;;;;;;2.10;1.27;;;;;;;14.80;51.94;100145.94;4991634;28;20021;-58
2021/05/21 05:34:50;;;;;;;6.43;1.58;;;;;;;14.90;51.09;100141.09;5007104;28;20026;-58
2021/05/21 05:37:16;;;;;;;4.25;1.73;;;;;;;15.06;49.79;100130.69;4988225;28;20394;-58
2021/05/21 05:39:43;;;;;;;5.43;1.48;;;;;;;15.00;50.50;100132.69;4992129;28;20030;-58
2021/05/21 05:42:08;;;;;;;5.38;1.60;;;;;;;15.03;56.53;100126.41;5010289;28;20027;-58
2021/05/21 05:44:34;;;;;;;3.05;1.65;;;;;;;15.08;54.67;100119.16;4988246;28;20030;-57
2021/05/21 05:46:59;;;;;;;4.90;1.40;;;;;;;15.13;51.55;100116.28;5012060;28;20553;-57
2021/05/21 05:49:25;;;;;;;5.72;1.77;;;;;;;15.17;50.83;100134.56;4956507;28;20037;-58
2021/05/21 05:51:51;;;;;;;2.90;1.60;;;;;;;15.25;46.75;100120.97;4985047;28;20161;-57
2021/05/21 05:54:16;;;;;;;6.32;1.50;;;;;;;15.30;49.93;100124.28;4981323;28;20027;-58
2021/05/21 05:56:42;;;;;;;4.82;1.67;;;;;;;15.32;50.93;100132.97;5014526;28;20056;-58
2021/05/21 05:59:07;;;;;;;3.60;1.70;;;;;;;15.39;48.49;100129.09;4978773;28;20393;-58
2021/05/21 06:01:33;;;;;;;3.03;1.40;;;;;;;15.48;45.88;100137.50;5024488;28;20019;-60
2021/05/21 06:03:59;;;;;;;4.53;1.40;;;;;;;15.53;47.98;100123.19;4990326;28;20101;-59
2021/05/21 06:06:25;;;;;;;2.75;1.40;;;;;;;15.50;50.13;100127.75;4975841;28;20030;-58
2021/05/21 06:08:51;;;;;;;2.42;1.30;;;;;;;15.54;48.88;100131.94;4986748;28;20034;-58
2021/05/21 06:11:16;;;;;;;4.28;1.60;;;;;;;15.51;46.37;100126.81;5024498;28;20117;-58
2021/05/21 06:13:42;;;;;;;6.97;1.73;;;;;;;15.56;49.34;100125.69;4991443;28;20026;-60
2021/05/21 06:16:08;;;;;;;3.80;1.38;;;;;;;15.53;47.80;100125.81;4993316;28;20490;-58
2021/05/21 06:18:33;;;;;;;5.82;1.98;;;;;;;15.63;44.51;100115.66;4991448;28;20077;-58
2021/05/21 06:20:59;;;;;;;2.70;1.40;;;;;;;15.69;44.21;100112.75;4979010;28;20019;-58
2021/05/21 06:23:25;;;;;;;7.78;1.75;;;;;;;15.72;41.81;100109.06;4984550;28;20386;-58
2021/05/21 06:28:24;;;;;;;4.30;1.25;;;;;;;15.75;48.16;100114.19;4985231;28;20034;-58
2021/05/21 06:30:51;;;;;;;2.50;1.23;;;;;;;15.69;45.64;100122.41;4977002;28;20038;-58
2021/05/21 06:33:16;;;;;;;3.97;1.40;;;;;;;15.74;44.88;100116.00;5000144;28;20517;-58
2021/05/21 06:35:42;;;;;;;3.28;1.52;;;;;;;15.74;45.53;100121.28;4984337;28;20054;-61
2021/05/21 06:38:09;;;;;;;3.70;1.80;;;;;;;15.89;43.41;100121.47;4975715;28;20034;-59
2021/05/21 06:40:34;;;;;;;3.95;1.33;;;;;;;16.01;40.72;100106.81;4999508;28;20026;-59
2021/05/21 06:43:06;;;;;;;5.25;1.60;;;;;;;16.15;40.49;100106.97;5023136;28;20037;-58
2021/05/21 06:45:32;;;;;;;6.05;1.42;;;;;;;16.20;41.72;100099.66;4992935;28;20125;-58
2021/05/21 06:47:58;;;;;;;3.63;1.40;;;;;;;16.23;43.03;100098.63;4990478;28;20038;-56
2021/05/21 06:50:24;;;;;;;3.67;1.30;;;;;;;16.29;43.84;100088.59;4977270;28;20599;-57
2021/05/21 06:52:49;;;;;;;3.95;1.38;;;;;;;16.41;44.65;100095.03;4995836;28;20505;-58
2021/05/21 06:55:15;;;;;;;2.95;1.60;;;;;;;16.47;43.73;100094.69;4995649;28;20069;-56
2021/05/21 06:57:40;;;;;;;4.03;1.73;;;;;;;16.65;42.36;100097.31;4972638;28;20045;-57
2021/05/21 07:00:06;;;;;;;2.92;1.40;;;;;;;16.77;39.67;100098.44;4980107;28;21228;-56
2021/05/21 07:02:32;;;;;;;2.53;1.27;;;;;;;16.76;38.90;100113.47;4981701;28;20056;-57
2021/05/21 07:04:58;;;;;;;5.70;1.80;;;;;;;16.89;40.65;100118.13;4985205;28;20556;-56
2021/05/21 07:07:25;;;;;;;3.60;1.23;;;;;;;16.92;40.19;100123.25;4978855;28;20060;-58
2021/05/21 07:09:51;;;;;;;2.28;1.30;;;;;;;17.12;39.06;100130.94;4982282;28;20386;-56
2021/05/21 07:12:17;;;;;;;5.82;1.75;;;;;;;17.23;38.58;100139.16;4998138;28;20053;-55
2021/05/21 07:14:42;;;;;;;6.07;1.55;;;;;;;17.39;39.23;100143.63;4983122;28;20447;-57
2021/05/21 07:17:08;;;;;;;6.00;2.03;;;;;;;17.50;38.03;100130.63;4979679;28;20031;-57
2021/05/21 07:19:34;;;;;;;9.38;1.92;;;;;;;17.57;38.52;100123.19;4979572;28;20035;-57
2021/05/21 07:21:59;;;;;;;4.78;1.80;;;;;;;17.73;38.65;100112.56;4981918;28;20371;-57
2021/05/21 07:24:25;;;;;;;5.88;2.17;;;;;;;17.71;37.04;100117.09;4984730;28;20080;-58
2021/05/21 07:26:50;;;;;;;6.47;2.20;;;;;;;17.55;36.61;100107.38;4981955;28;20033;-58
2021/05/21 07:29:16;;;;;;;6.78;2.40;;;;;;;17.75;36.65;100113.34;4978049;28;20061;-58
2021/05/21 07:31:41;;;;;;;8.35;2.72;;;;;;;17.63;36.71;100109.56;4983424;28;20144;-57
2021/05/21 07:34:07;;;;;;;4.50;2.10;;;;;;;17.68;37.28;100101.38;4984130;28;20110;-57
2021/05/21 07:36:35;;;;;;;4.40;2.30;;;;;;;17.79;37.94;100088.38;4982550;28;20069;-57
2021/05/21 07:39:02;;;;;;;3.42;1.77;;;;;;;17.80;37.02;100082.13;4973992;28;20058;-58
2021/05/21 07:41:27;;;;;;;6.57;1.88;;;;;;;17.63;36.84;100082.25;4993000;28;20628;-58
2021/05/21 07:43:54;;;;;;;5.32;1.80;;;;;;;17.50;37.32;100082.97;4993817;28;20172;-57
2021/05/21 07:46:22;;;;;;;2.92;1.35;;;;;;;17.59;36.42;100081.59;4991125;28;20402;-58
2021/05/21 07:48:49;;;;;;;3.78;1.40;;;;;;;17.52;36.70;100086.38;4986137;28;20102;-59
2021/05/21 07:51:16;;;;;;;6.60;1.80;;;;;;;17.37;36.39;100080.16;4983726;28;20042;-58
2021/05/21 07:53:41;;;;;;;2.55;1.45;;;;;;;17.51;36.51;100082.00;4991350;28;20023;-59
2021/05/21 07:56:07;;;;;;;5.60;1.60;;;;;;;17.40;35.96;100077.34;4995097;28;20053;-58
2021/05/21 07:58:33;;;;;;;7.93;1.60;;;;;;;17.57;36.40;100073.72;4991883;28;20026;-58
2021/05/21 08:00:59;;;;;;;8.88;1.83;;;;;;;17.58;36.21;100075.44;4977060;28;20033;-57
2021/05/21 08:03:25;;;;;;;4.85;1.25;;;;;;;17.73;35.41;100083.41;4993906;28;20077;-58
2021/05/21 08:05:50;;;;;;;5.95;1.50;;;;;;;17.96;33.31;100100.66;4994226;28;20089;-58
2021/05/21 08:08:20;;;;;;;4.47;1.60;;;;;;;17.93;33.54;100107.00;4994258;28;20026;-58
2021/05/21 08:10:50;;;;;;;5.65;1.65;;;;;;;18.06;34.06;100124.84;4992698;28;20088;-58
2021/05/21 08:25:52;;;;;;;5.05;1.77;;;;;;;18.42;33.76;100055.50;5108707;27;20372;-57
2021/05/21 08:28:17;;;;;;;7.00;1.80;;;;;;;18.37;33.19;100046.13;5108167;28;20123;-58
2021/05/21 08:30:43;;;;;;;4.72;1.80;;;;;;;18.48;33.73;100049.81;5091025;28;20062;-58
2021/05/21 08:33:10;;;;;;;3.67;2.13;;;;;;;18.60;34.49;100069.41;5108208;28;20324;-57
2021/05/21 08:35:36;;;;;;;5.50;1.40;;;;;;;18.68;33.65;100077.75;5109254;28;20115;-57
2021/05/21 08:38:02;;;;;;;3.25;1.33;;;;;;;18.73;32.00;100085.41;5108748;28;20020;-58
2021/05/21 08:40:35;;;;;;;3.30;1.63;;;;;;;18.86;31.99;100090.84;5109053;28;20027;-57
2021/05/21 08:43:06;;;;;;;4.53;1.98;;;;;;;19.03;32.87;100097.72;5109077;28;20058;-57
2021/05/21 08:45:32;;;;;;;3.03;1.60;;;;;;;18.88;32.75;100088.09;5090074;28;20390;-57
2021/05/21 08:47:58;;;;;;;6.55;2.60;;;;;;;18.86;33.26;100080.22;5108187;28;20540;-57
2021/05/21 08:50:25;;;;;;;4.50;2.08;;;;;;;18.75;33.17;100061.44;5093243;28;20024;-57
2021/05/21 08:52:51;;;;;;;4.10;1.80;;;;;;;18.66;33.35;100062.88;5088533;28;20028;-56
2021/05/21 08:55:17;;;;;;;5.15;1.85;;;;;;;18.87;32.89;100073.94;5090243;28;20410;-58
2021/05/21 08:57:44;;;;;;;3.78;2.25;;;;;;;19.06;32.99;100071.00;5090099;28;20050;-56
2021/05/21 09:00:11;;;;;;;8.77;2.10;;;;;;;19.24;32.50;100077.75;5090321;28;20028;-56
2021/05/21 09:02:38;;;;;;;4.13;1.42;;;;;;;19.35;29.93;100069.13;5108130;28;20097;-57
2021/05/21 09:05:06;;;;;;;3.47;1.60;;;;;;;19.41;29.66;100066.06;5097317;28;20028;-56
2021/05/21 09:07:37;;;;;;;3.85;1.70;;;;;;;19.48;30.31;100058.53;5108227;28;20066;-57
2021/05/21 09:10:12;;;;;;;4.22;1.50;;;;;;;19.57;30.42;100057.06;5106456;28;20020;-56
2021/05/21 09:12:44;;;;;;;2.78;1.65;;;;;;;19.63;30.71;100053.16;5107993;28;20023;-58
2021/05/21 09:15:15;;;;;;;4.47;2.17;;;;;;;19.61;30.15;100066.56;5088648;28;20100;-57
2021/05/21 09:17:50;;;;;;;14.82;2.72;;;;;;;19.56;29.28;100066.00;5072543;28;20440;-56
2021/05/21 09:20:28;;;;;;;8.23;2.58;;;;;;;19.64;29.81;100060.16;5107334;28;20027;-57
2021/05/21 09:23:14;;;;;;;4.90;2.10;;;;;;;19.70;30.55;100065.94;5108345;28;20526;-56
2021/05/21 09:25:58;;;;;;;10.02;3.15;;;;;;;19.78;30.20;100058.34;5081983;28;20044;-56
2021/05/21 09:28:30;;;;;;;4.70;2.45;;;;;;;19.99;29.85;100049.84;5094538;28;20047;-58
2021/05/21 09:31:14;;;;;;;5.25;2.25;;;;;;;20.10;29.49;100049.13;5093983;28;20028;-56
2021/05/21 09:33:45;;;;;;;3.42;2.10;;;;;;;20.12;29.72;100048.06;5094498;28;20131;-56
2021/05/21 09:36:12;;;;;;;5.50;2.20;;;;;;;20.26;29.28;100051.59;5093614;28;20104;-56
2021/05/21 09:38:56;;;;;;;4.80;2.33;;;;;;;20.35;28.43;100053.59;5094245;28;20360;-57
2021/05/21 09:41:24;;;;;;;5.15;2.05;;;;;;;20.63;28.69;100059.63;5094208;28;20036;-58
2021/05/21 09:43:51;;;;;;;5.18;2.42;;;;;;;20.70;28.52;100055.63;5074341;28;20411;-57
2021/05/21 09:46:17;;;;;;;5.82;2.72;;;;;;;20.63;27.82;100055.22;5072749;28;20025;-57
2021/05/21 09:48:43;;;;;;;3.75;2.20;;;;;;;20.71;28.27;100044.00;5092769;28;20048;-56
2021/05/21 09:51:09;;;;;;;3.70;2.55;;;;;;;20.82;29.26;100036.09;5094349;28;20063;-57
2021/05/21 09:53:34;;;;;;;3.63;2.42;;;;;;;21.11;28.63;100033.16;5107020;28;20028;-57
2021/05/21 09:56:05;;;;;;;5.53;2.60;;;;;;;21.28;26.93;100023.06;5114326;28;20092;-57
2021/05/21 09:58:41;;;;;;;6.00;2.40;;;;;;;21.39;26.04;100015.13;5095706;28;20036;-57
2021/05/21 10:01:24;;;;;;;4.75;2.70;;;;;;;21.41;27.01;100007.88;5094619;28;20028;-56
2021/05/21 10:03:55;;;;;;;6.00;2.72;;;;;;;21.24;27.00;100003.81;5075425;28;20628;-57
2021/05/21 10:06:23;;;;;;;3.63;2.03;;;;;;;21.19;27.71;99998.81;5093046;28;20040;-57
2021/05/21 10:08:49;;;;;;;5.30;2.55;;;;;;;21.37;26.86;100012.56;5093107;28;20032;-56
2021/05/21 10:11:16;;;;;;;4.30;2.33;;;;;;;21.40;28.56;100008.84;5075248;28;20036;-56
2021/05/21 10:13:44;;;;;;;5.18;2.40;;;;;;;21.78;27.43;100021.13;5092835;28;20119;-57
2021/05/21 10:16:15;;;;;;;7.63;2.70;;;;;;;21.73;27.02;100012.63;5093442;28;20363;-56
2021/05/21 10:18:43;;;;;;;6.43;2.60;;;;;;;22.17;28.42;100011.00;5093007;28;20067;-58
2021/05/21 10:21:10;;;;;;;5.80;2.17;;;;;;;22.38;26.61;100008.50;5073733;28;20024;-57
2021/05/21 10:24:03;;;;;;;6.50;2.83;;;;;;;22.25;26.06;100011.25;5093306;28;20023;-56
2021/05/21 10:26:38;;;;;;;3.78;2.60;;;;;;;22.36;26.46;100007.78;5088331;28;20036;-58
2021/05/21 10:29:11;;;;;;;2.85;2.10;;;;;;;22.50;26.47;99994.16;5075075;28;20038;-56
2021/05/21 10:31:37;;;;;;;6.13;3.53;;;;;;;22.44;25.67;99985.81;5073898;28;20036;-57
2021/05/21 10:34:21;;;;;;;4.22;2.55;;;;;;;22.37;26.49;99966.78;5074803;28;20025;-57
2021/05/21 10:36:51;;;;;;;5.55;2.00;;;;;;;22.18;26.55;99975.38;5091588;28;20504;-57
2021/05/21 10:39:16;;;;;;;5.65;2.20;;;;;;;22.31;25.93;99981.47;5074595;28;20039;-56
2021/05/21 10:41:56;;;;;;;5.38;2.42;;;;;;;21.92;26.56;99988.91;5091800;28;20024;-56
2021/05/21 10:44:23;;;;;;;5.65;2.40;;;;;;;21.90;26.82;99966.00;5073663;28;20050;-56
2021/05/21 10:46:52;;;;;;;4.35;2.10;;;;;;;21.89;26.49;99957.16;5092906;28;20031;-57
2021/05/21 10:49:26;;;;;;;4.18;2.17;;;;;;;21.88;26.31;99960.78;5092381;28;20031;-58
2021/05/21 10:51:56;;;;;;;3.38;1.88;;;;;;;21.86;26.21;99953.88;5078890;28;20035;-57
2021/05/21 10:54:33;;;;;;;3.63;2.13;;;;;;;21.94;26.73;99970.13;5092593;28;20078;-57
2021/05/21 10:57:13;;;;;;;4.30;2.00;;;;;;;22.03;27.07;99965.88;5105460;28;20086;-53
2021/05/21 10:59:50;;;;;;;5.25;2.63;;;;;;;22.04;26.55;99970.28;5069692;28;20403;-56
2021/05/21 11:02:17;;;;;;;6.03;2.10;;;;;;;22.20;26.69;99961.91;5084344;28;20106;-57
2021/05/21 11:04:43;;;;;;;4.05;2.50;;;;;;;22.10;26.18;99956.47;5092163;28;20028;-58
2021/05/21 11:07:09;;;;;;;4.68;2.17;;;;;;;22.12;26.52;99962.50;5073628;28;20109;-58
2021/05/21 11:09:45;;;;;;;3.75;2.40;;;;;;;22.08;27.26;99961.91;5072283;28;20477;-57
2021/05/21 11:12:15;;;;;;;4.60;2.70;;;;;;;22.13;27.17;99950.84;5074780;28;20103;-57
2021/05/21 11:14:46;;;;;;;5.35;2.67;;;;;;;22.14;27.25;99958.75;5073752;28;20123;-58
2021/05/21 11:17:20;;;;;;;3.97;2.10;;;;;;;22.08;27.91;99959.25;5092492;28;20016;-55
2021/05/21 11:19:53;;;;;;;5.22;2.63;;;;;;;22.51;27.46;99963.84;5091687;28;20035;-56
2021/05/21 11:22:28;;;;;;;5.57;2.65;;;;;;;22.42;25.83;99953.06;5091644;28;20311;-58
2021/05/21 11:25:00;;;;;;;5.50;2.75;;;;;;;22.79;26.28;99944.75;5090435;28;20514;-57
2021/05/21 11:27:28;;;;;;;3.83;2.33;;;;;;;23.23;25.70;99935.75;5079557;28;20028;-56
2021/05/21 11:29:54;;;;;;;4.55;2.67;;;;;;;23.35;25.70;99922.34;5090867;28;20510;-57
2021/05/21 11:32:23;;;;;;;8.73;2.67;;;;;;;22.82;26.23;99909.81;5091246;28;20471;-57
2021/05/21 11:34:50;;;;;;;5.75;2.75;;;;;;;22.60;26.67;99911.53;5091329;28;20386;-58
2021/05/21 11:37:20;;;;;;;5.60;2.90;;;;;;;22.76;26.68;99915.66;5091741;28;20046;-57
2021/05/21 11:39:46;;;;;;;4.30;2.80;;;;;;;22.79;26.58;99915.41;5073564;28;20031;-58
2021/05/21 11:42:11;;;;;;;5.53;2.80;;;;;;;22.76;26.88;99910.31;5092191;28;20364;-57
2021/05/21 11:44:37;;;;;;;6.03;3.33;;;;;;;22.95;26.59;99894.47;5091506;28;20120;-57